Los Nietos, California
Current Conditions -  °F | °C
As of 9:53 PM on Sunday 23 Nov 2014 (Local Time) from KFUL Reporting Station
Clear Clear  
Wind Chill: 60°   Ceiling: Unl
Heat Index: 60°   Visibility: 10mi
Dew Point: 17°   Wind: 7mph
Humidity: 19%   Direction: 80°E
Pressure: 30.13"   Gusts: NA
Location:  33.9685°N, 118.069°W
Report Text: KFUL 240553Z 08006KT 10SM CLR 16/M08 A3013 RMK AO2 SLP201 T01561083 10244 20139 51012
Loading
Personal Weather Stations






























Interactive Weather Map New forecast layout! Learn more

10-Day Weather Forecast

Advertisements
Track Severe Weather on mobile